sensor_id;sensor_type;location;lat;lon;timestamp;P1;durP1;ratioP1;P2;durP2;ratioP2
22963;SDS011;11648;49.306;6.934;2024-01-30T00:00:53;10.10;;;7.17;;
22963;SDS011;11648;49.306;6.934;2024-01-30T00:03:20;12.53;;;6.87;;
22963;SDS011;11648;49.306;6.934;2024-01-30T00:05:47;11.50;;;7.10;;
22963;SDS011;11648;49.306;6.934;2024-01-30T00:08:14;13.67;;;7.40;;
22963;SDS011;11648;49.306;6.934;2024-01-30T00:10:41;13.60;;;7.00;;
22963;SDS011;11648;49.306;6.934;2024-01-30T00:13:08;9.83;;;6.90;;
22963;SDS011;11648;49.306;6.934;2024-01-30T00:15:35;11.60;;;7.30;;
22963;SDS011;11648;49.306;6.934;2024-01-30T00:18:02;12.97;;;7.20;;
22963;SDS011;11648;49.306;6.934;2024-01-30T00:20:29;10.03;;;7.03;;
22963;SDS011;11648;49.306;6.934;2024-01-30T00:22:56;13.57;;;6.80;;
22963;SDS011;11648;49.306;6.934;2024-01-30T00:25:23;9.83;;;6.70;;
22963;SDS011;11648;49.306;6.934;2024-01-30T00:27:50;10.50;;;6.83;;
22963;SDS011;11648;49.306;6.934;2024-01-30T00:30:17;11.03;;;7.33;;
22963;SDS011;11648;49.306;6.934;2024-01-30T00:32:44;10.33;;;6.80;;
22963;SDS011;11648;49.306;6.934;2024-01-30T00:35:12;10.33;;;6.60;;
22963;SDS011;11648;49.306;6.934;2024-01-30T00:37:39;8.83;;;6.57;;
22963;SDS011;11648;49.306;6.934;2024-01-30T00:40:06;10.50;;;6.93;;
22963;SDS011;11648;49.306;6.934;2024-01-30T00:42:33;10.70;;;7.03;;
22963;SDS011;11648;49.306;6.934;2024-01-30T00:45:00;10.93;;;6.73;;
22963;SDS011;11648;49.306;6.934;2024-01-30T00:47:28;9.03;;;6.27;;
22963;SDS011;11648;49.306;6.934;2024-01-30T00:49:55;10.27;;;6.37;;
22963;SDS011;11648;49.306;6.934;2024-01-30T00:52:22;10.03;;;6.50;;
22963;SDS011;11648;49.306;6.934;2024-01-30T00:54:49;10.20;;;6.53;;
22963;SDS011;11648;49.306;6.934;2024-01-30T00:57:16;11.70;;;6.47;;
22963;SDS011;11648;49.306;6.934;2024-01-30T00:59:43;10.10;;;6.37;;
22963;SDS011;11648;49.306;6.934;2024-01-30T01:02:10;11.07;;;7.00;;
22963;SDS011;11648;49.306;6.934;2024-01-30T01:04:37;11.80;;;7.00;;
22963;SDS011;11648;49.306;6.934;2024-01-30T01:07:04;11.07;;;7.47;;
22963;SDS011;11648;49.306;6.934;2024-01-30T01:09:31;9.77;;;6.90;;
22963;SDS011;11648;49.306;6.934;2024-01-30T01:11:58;11.53;;;7.40;;
22963;SDS011;11648;49.306;6.934;2024-01-30T01:14:25;11.03;;;7.20;;
22963;SDS011;11648;49.306;6.934;2024-01-30T01:16:52;10.57;;;7.10;;
22963;SDS011;11648;49.306;6.934;2024-01-30T01:19:19;12.30;;;7.17;;
22963;SDS011;11648;49.306;6.934;2024-01-30T01:21:46;12.00;;;6.93;;
22963;SDS011;11648;49.306;6.934;2024-01-30T01:24:13;10.60;;;7.50;;
22963;SDS011;11648;49.306;6.934;2024-01-30T01:26:40;10.40;;;6.70;;
22963;SDS011;11648;49.306;6.934;2024-01-30T01:29:07;12.57;;;6.97;;
22963;SDS011;11648;49.306;6.934;2024-01-30T01:31:38;10.80;;;6.77;;
22963;SDS011;11648;49.306;6.934;2024-01-30T01:34:11;9.73;;;6.63;;
22963;SDS011;11648;49.306;6.934;2024-01-30T01:36:39;9.27;;;6.50;;
22963;SDS011;11648;49.306;6.934;2024-01-30T01:39:06;10.87;;;7.13;;
22963;SDS011;11648;49.306;6.934;2024-01-30T01:41:33;10.23;;;6.57;;
22963;SDS011;11648;49.306;6.934;2024-01-30T01:44:00;10.03;;;6.67;;
22963;SDS011;11648;49.306;6.934;2024-01-30T01:46:27;10.70;;;6.90;;
22963;SDS011;11648;49.306;6.934;2024-01-30T01:49:00;10.67;;;7.20;;
22963;SDS011;11648;49.306;6.934;2024-01-30T01:51:29;9.97;;;6.90;;
22963;SDS011;11648;49.306;6.934;2024-01-30T01:53:58;9.07;;;6.47;;
22963;SDS011;11648;49.306;6.934;2024-01-30T01:56:27;9.97;;;7.10;;
22963;SDS011;11648;49.306;6.934;2024-01-30T01:58:55;9.97;;;6.37;;
22963;SDS011;11648;49.306;6.934;2024-01-30T02:01:38;9.13;;;6.00;;
22963;SDS011;11648;49.306;6.934;2024-01-30T02:04:07;12.77;;;6.53;;
22963;SDS011;11648;49.306;6.934;2024-01-30T02:06:34;8.73;;;6.00;;
22963;SDS011;11648;49.306;6.934;2024-01-30T02:09:02;8.80;;;5.87;;
22963;SDS011;11648;49.306;6.934;2024-01-30T02:11:31;8.93;;;6.10;;
22963;SDS011;11648;49.306;6.934;2024-01-30T02:14:02;9.40;;;6.23;;
22963;SDS011;11648;49.306;6.934;2024-01-30T02:16:31;8.50;;;5.77;;
22963;SDS011;11648;49.306;6.934;2024-01-30T02:18:58;7.97;;;5.13;;
22963;SDS011;11648;49.306;6.934;2024-01-30T02:21:29;8.60;;;5.33;;
22963;SDS011;11648;49.306;6.934;2024-01-30T02:23:56;8.10;;;5.23;;
22963;SDS011;11648;49.306;6.934;2024-01-30T02:26:25;9.50;;;5.33;;
22963;SDS011;11648;49.306;6.934;2024-01-30T02:28:51;9.17;;;5.37;;
22963;SDS011;11648;49.306;6.934;2024-01-30T02:31:18;9.87;;;5.60;;
22963;SDS011;11648;49.306;6.934;2024-01-30T02:33:45;9.40;;;5.73;;
22963;SDS011;11648;49.306;6.934;2024-01-30T02:36:12;10.10;;;5.73;;
22963;SDS011;11648;49.306;6.934;2024-01-30T02:38:39;9.73;;;5.70;;
22963;SDS011;11648;49.306;6.934;2024-01-30T02:41:06;8.33;;;4.50;;
22963;SDS011;11648;49.306;6.934;2024-01-30T02:43:33;9.80;;;5.27;;
22963;SDS011;11648;49.306;6.934;2024-01-30T02:46:00;9.20;;;5.00;;
22963;SDS011;11648;49.306;6.934;2024-01-30T02:48:27;8.37;;;5.37;;
22963;SDS011;11648;49.306;6.934;2024-01-30T02:50:54;9.93;;;6.17;;
22963;SDS011;11648;49.306;6.934;2024-01-30T02:53:21;8.43;;;5.10;;
22963;SDS011;11648;49.306;6.934;2024-01-30T02:55:48;9.47;;;5.60;;
22963;SDS011;11648;49.306;6.934;2024-01-30T02:58:15;9.20;;;5.80;;
22963;SDS011;11648;49.306;6.934;2024-01-30T03:00:42;9.43;;;5.50;;
22963;SDS011;11648;49.306;6.934;2024-01-30T03:03:09;9.30;;;5.50;;
22963;SDS011;11648;49.306;6.934;2024-01-30T03:05:36;9.73;;;6.00;;
22963;SDS011;11648;49.306;6.934;2024-01-30T03:08:03;10.23;;;6.17;;
22963;SDS011;11648;49.306;6.934;2024-01-30T03:10:31;10.90;;;6.23;;
22963;SDS011;11648;49.306;6.934;2024-01-30T03:12:58;10.83;;;6.50;;
22963;SDS011;11648;49.306;6.934;2024-01-30T03:15:27;9.50;;;6.77;;
22963;SDS011;11648;49.306;6.934;2024-01-30T03:17:54;9.03;;;5.90;;
22963;SDS011;11648;49.306;6.934;2024-01-30T03:20:21;9.80;;;6.13;;
22963;SDS011;11648;49.306;6.934;2024-01-30T03:22:48;8.60;;;5.63;;
22963;SDS011;11648;49.306;6.934;2024-01-30T03:25:15;8.30;;;5.40;;
22963;SDS011;11648;49.306;6.934;2024-01-30T03:27:42;9.20;;;5.60;;
22963;SDS011;11648;49.306;6.934;2024-01-30T03:30:09;10.50;;;5.67;;
22963;SDS011;11648;49.306;6.934;2024-01-30T03:32:36;8.90;;;5.47;;
22963;SDS011;11648;49.306;6.934;2024-01-30T03:35:03;10.20;;;5.23;;
22963;SDS011;11648;49.306;6.934;2024-01-30T03:37:30;9.07;;;4.80;;
22963;SDS011;11648;49.306;6.934;2024-01-30T03:39:57;9.20;;;5.23;;
22963;SDS011;11648;49.306;6.934;2024-01-30T03:42:24;8.67;;;5.33;;
22963;SDS011;11648;49.306;6.934;2024-01-30T03:44:51;10.23;;;5.77;;
22963;SDS011;11648;49.306;6.934;2024-01-30T03:47:20;9.90;;;5.33;;
22963;SDS011;11648;49.306;6.934;2024-01-30T03:49:47;10.23;;;5.00;;
22963;SDS011;11648;49.306;6.934;2024-01-30T03:52:14;7.60;;;4.70;;
22963;SDS011;11648;49.306;6.934;2024-01-30T03:54:42;6.77;;;4.70;;
22963;SDS011;11648;49.306;6.934;2024-01-30T03:57:08;7.27;;;4.53;;
22963;SDS011;11648;49.306;6.934;2024-01-30T03:59:35;8.57;;;5.43;;
22963;SDS011;11648;49.306;6.934;2024-01-30T04:02:02;8.27;;;5.30;;
22963;SDS011;11648;49.306;6.934;2024-01-30T04:04:30;8.23;;;4.60;;
22963;SDS011;11648;49.306;6.934;2024-01-30T04:06:57;8.67;;;4.63;;
22963;SDS011;11648;49.306;6.934;2024-01-30T04:09:24;7.83;;;4.73;;
22963;SDS011;11648;49.306;6.934;2024-01-30T04:11:53;9.73;;;4.67;;
22963;SDS011;11648;49.306;6.934;2024-01-30T04:14:19;8.17;;;5.20;;
22963;SDS011;11648;49.306;6.934;2024-01-30T04:16:46;7.23;;;4.70;;
22963;SDS011;11648;49.306;6.934;2024-01-30T04:19:13;8.53;;;4.30;;
22963;SDS011;11648;49.306;6.934;2024-01-30T04:21:41;7.17;;;4.47;;
22963;SDS011;11648;49.306;6.934;2024-01-30T04:24:08;7.80;;;4.17;;
22963;SDS011;11648;49.306;6.934;2024-01-30T04:26:35;7.43;;;3.97;;
22963;SDS011;11648;49.306;6.934;2024-01-30T04:29:03;7.53;;;3.93;;
22963;SDS011;11648;49.306;6.934;2024-01-30T04:31:30;6.97;;;3.93;;
22963;SDS011;11648;49.306;6.934;2024-01-30T04:33:57;7.30;;;4.63;;
22963;SDS011;11648;49.306;6.934;2024-01-30T04:36:24;6.90;;;3.80;;
22963;SDS011;11648;49.306;6.934;2024-01-30T04:38:50;5.70;;;3.93;;
22963;SDS011;11648;49.306;6.934;2024-01-30T04:41:17;7.77;;;4.07;;
22963;SDS011;11648;49.306;6.934;2024-01-30T04:43:44;6.27;;;4.10;;
22963;SDS011;11648;49.306;6.934;2024-01-30T04:46:11;8.40;;;4.40;;
22963;SDS011;11648;49.306;6.934;2024-01-30T04:48:38;6.47;;;4.37;;
22963;SDS011;11648;49.306;6.934;2024-01-30T04:51:05;9.50;;;4.67;;
22963;SDS011;11648;49.306;6.934;2024-01-30T04:53:32;8.27;;;4.07;;
22963;SDS011;11648;49.306;6.934;2024-01-30T04:55:59;7.50;;;4.10;;
22963;SDS011;11648;49.306;6.934;2024-01-30T04:58:26;7.30;;;4.10;;
22963;SDS011;11648;49.306;6.934;2024-01-30T05:00:53;6.27;;;3.80;;
22963;SDS011;11648;49.306;6.934;2024-01-30T05:03:19;7.60;;;4.10;;
22963;SDS011;11648;49.306;6.934;2024-01-30T05:05:48;7.47;;;4.13;;
22963;SDS011;11648;49.306;6.934;2024-01-30T05:08:15;6.07;;;4.03;;
22963;SDS011;11648;49.306;6.934;2024-01-30T05:10:42;6.13;;;3.80;;
22963;SDS011;11648;49.306;6.934;2024-01-30T05:13:09;7.37;;;4.30;;
22963;SDS011;11648;49.306;6.934;2024-01-30T05:15:36;5.87;;;4.13;;
22963;SDS011;11648;49.306;6.934;2024-01-30T05:18:04;5.87;;;3.90;;
22963;SDS011;11648;49.306;6.934;2024-01-30T05:20:31;8.30;;;4.47;;
22963;SDS011;11648;49.306;6.934;2024-01-30T05:22:58;7.37;;;4.63;;
22963;SDS011;11648;49.306;6.934;2024-01-30T05:25:25;7.97;;;4.50;;
22963;SDS011;11648;49.306;6.934;2024-01-30T05:27:52;7.63;;;4.40;;
22963;SDS011;11648;49.306;6.934;2024-01-30T05:30:19;7.87;;;4.57;;
22963;SDS011;11648;49.306;6.934;2024-01-30T05:32:46;8.53;;;4.17;;
22963;SDS011;11648;49.306;6.934;2024-01-30T05:35:13;7.37;;;4.60;;
22963;SDS011;11648;49.306;6.934;2024-01-30T05:37:39;6.60;;;4.17;;
22963;SDS011;11648;49.306;6.934;2024-01-30T05:40:06;6.47;;;4.13;;
22963;SDS011;11648;49.306;6.934;2024-01-30T05:42:34;7.20;;;4.33;;
22963;SDS011;11648;49.306;6.934;2024-01-30T05:45:01;7.60;;;4.53;;
22963;SDS011;11648;49.306;6.934;2024-01-30T05:47:29;7.90;;;4.40;;
22963;SDS011;11648;49.306;6.934;2024-01-30T05:49:56;6.83;;;4.20;;
22963;SDS011;11648;49.306;6.934;2024-01-30T05:52:23;8.50;;;4.63;;
22963;SDS011;11648;49.306;6.934;2024-01-30T05:54:49;7.13;;;4.30;;
22963;SDS011;11648;49.306;6.934;2024-01-30T05:57:17;6.30;;;3.77;;
22963;SDS011;11648;49.306;6.934;2024-01-30T05:59:44;6.90;;;4.20;;
22963;SDS011;11648;49.306;6.934;2024-01-30T06:02:11;6.57;;;4.07;;
22963;SDS011;11648;49.306;6.934;2024-01-30T06:04:38;7.10;;;4.50;;
22963;SDS011;11648;49.306;6.934;2024-01-30T06:07:05;7.50;;;4.50;;
22963;SDS011;11648;49.306;6.934;2024-01-30T06:09:33;7.47;;;5.07;;
22963;SDS011;11648;49.306;6.934;2024-01-30T06:11:59;8.13;;;4.80;;
22963;SDS011;11648;49.306;6.934;2024-01-30T06:14:26;8.17;;;4.80;;
22963;SDS011;11648;49.306;6.934;2024-01-30T06:16:53;7.37;;;4.67;;
22963;SDS011;11648;49.306;6.934;2024-01-30T06:19:20;8.93;;;4.87;;
22963;SDS011;11648;49.306;6.934;2024-01-30T06:21:47;8.17;;;4.60;;
22963;SDS011;11648;49.306;6.934;2024-01-30T06:24:14;10.50;;;4.60;;
22963;SDS011;11648;49.306;6.934;2024-01-30T06:26:41;7.77;;;5.13;;
22963;SDS011;11648;49.306;6.934;2024-01-30T06:29:08;7.20;;;4.60;;
22963;SDS011;11648;49.306;6.934;2024-01-30T06:31:41;8.33;;;4.90;;
22963;SDS011;11648;49.306;6.934;2024-01-30T06:34:11;7.63;;;4.90;;
22963;SDS011;11648;49.306;6.934;2024-01-30T06:36:38;7.13;;;4.50;;
22963;SDS011;11648;49.306;6.934;2024-01-30T06:39:05;6.97;;;4.77;;
22963;SDS011;11648;49.306;6.934;2024-01-30T06:41:32;7.43;;;4.60;;
22963;SDS011;11648;49.306;6.934;2024-01-30T06:44:01;9.07;;;4.93;;
22963;SDS011;11648;49.306;6.934;2024-01-30T06:46:29;8.67;;;5.00;;
22963;SDS011;11648;49.306;6.934;2024-01-30T06:48:56;8.70;;;6.10;;
22963;SDS011;11648;49.306;6.934;2024-01-30T06:51:23;10.20;;;6.03;;
22963;SDS011;11648;49.306;6.934;2024-01-30T06:53:52;10.83;;;5.87;;
22963;SDS011;11648;49.306;6.934;2024-01-30T06:56:19;9.67;;;5.17;;
22963;SDS011;11648;49.306;6.934;2024-01-30T06:58:47;8.73;;;5.33;;
22963;SDS011;11648;49.306;6.934;2024-01-30T07:01:15;6.53;;;4.30;;
22963;SDS011;11648;49.306;6.934;2024-01-30T07:03:43;7.97;;;5.33;;
22963;SDS011;11648;49.306;6.934;2024-01-30T07:06:10;6.63;;;4.67;;
22963;SDS011;11648;49.306;6.934;2024-01-30T07:08:37;7.47;;;4.47;;
22963;SDS011;11648;49.306;6.934;2024-01-30T07:11:07;7.10;;;4.93;;
22963;SDS011;11648;49.306;6.934;2024-01-30T07:13:34;10.07;;;6.13;;
22963;SDS011;11648;49.306;6.934;2024-01-30T07:16:01;9.00;;;5.27;;
22963;SDS011;11648;49.306;6.934;2024-01-30T07:18:28;7.93;;;5.23;;
22963;SDS011;11648;49.306;6.934;2024-01-30T07:20:55;8.20;;;4.90;;
22963;SDS011;11648;49.306;6.934;2024-01-30T07:23:22;9.20;;;5.00;;
22963;SDS011;11648;49.306;6.934;2024-01-30T07:25:49;9.10;;;5.00;;
22963;SDS011;11648;49.306;6.934;2024-01-30T07:28:17;6.93;;;4.67;;
22963;SDS011;11648;49.306;6.934;2024-01-30T07:30:44;9.83;;;5.37;;
22963;SDS011;11648;49.306;6.934;2024-01-30T07:33:11;14.20;;;7.70;;
22963;SDS011;11648;49.306;6.934;2024-01-30T07:35:38;12.50;;;7.23;;
22963;SDS011;11648;49.306;6.934;2024-01-30T07:38:05;13.83;;;7.90;;
22963;SDS011;11648;49.306;6.934;2024-01-30T07:40:32;12.40;;;7.63;;
22963;SDS011;11648;49.306;6.934;2024-01-30T07:43:00;8.33;;;5.80;;
22963;SDS011;11648;49.306;6.934;2024-01-30T07:45:27;8.00;;;5.13;;
22963;SDS011;11648;49.306;6.934;2024-01-30T07:47:59;10.50;;;5.70;;
22963;SDS011;11648;49.306;6.934;2024-01-30T07:50:29;7.77;;;5.37;;
22963;SDS011;11648;49.306;6.934;2024-01-30T07:52:56;11.47;;;5.57;;
22963;SDS011;11648;49.306;6.934;2024-01-30T07:55:23;8.53;;;5.50;;
22963;SDS011;11648;49.306;6.934;2024-01-30T07:57:55;8.67;;;4.83;;
22963;SDS011;11648;49.306;6.934;2024-01-30T08:00:22;7.13;;;4.97;;
22963;SDS011;11648;49.306;6.934;2024-01-30T08:02:49;9.83;;;5.13;;
22963;SDS011;11648;49.306;6.934;2024-01-30T08:05:18;7.90;;;4.70;;
22963;SDS011;11648;49.306;6.934;2024-01-30T08:07:46;9.67;;;6.03;;
22963;SDS011;11648;49.306;6.934;2024-01-30T08:10:13;9.13;;;6.53;;
22963;SDS011;11648;49.306;6.934;2024-01-30T08:12:41;11.03;;;6.40;;
22963;SDS011;11648;49.306;6.934;2024-01-30T08:15:08;8.43;;;5.63;;
22963;SDS011;11648;49.306;6.934;2024-01-30T08:17:35;8.77;;;5.77;;
22963;SDS011;11648;49.306;6.934;2024-01-30T08:20:02;8.90;;;5.50;;
22963;SDS011;11648;49.306;6.934;2024-01-30T08:22:31;7.23;;;5.40;;
22963;SDS011;11648;49.306;6.934;2024-01-30T08:24:58;7.57;;;5.27;;
22963;SDS011;11648;49.306;6.934;2024-01-30T08:27:25;7.93;;;5.50;;
22963;SDS011;11648;49.306;6.934;2024-01-30T08:29:52;7.93;;;5.27;;
22963;SDS011;11648;49.306;6.934;2024-01-30T08:32:19;9.17;;;4.97;;
22963;SDS011;11648;49.306;6.934;2024-01-30T08:34:45;7.57;;;4.77;;
22963;SDS011;11648;49.306;6.934;2024-01-30T08:37:12;7.70;;;4.30;;
22963;SDS011;11648;49.306;6.934;2024-01-30T08:39:43;8.77;;;4.83;;
22963;SDS011;11648;49.306;6.934;2024-01-30T08:42:10;7.53;;;4.70;;
22963;SDS011;11648;49.306;6.934;2024-01-30T08:44:38;7.40;;;4.57;;
22963;SDS011;11648;49.306;6.934;2024-01-30T08:47:05;7.97;;;4.50;;
22963;SDS011;11648;49.306;6.934;2024-01-30T08:49:32;6.93;;;4.73;;
22963;SDS011;11648;49.306;6.934;2024-01-30T08:51:59;11.57;;;5.00;;
22963;SDS011;11648;49.306;6.934;2024-01-30T08:54:26;7.80;;;4.83;;
22963;SDS011;11648;49.306;6.934;2024-01-30T08:56:53;7.37;;;4.57;;
22963;SDS011;11648;49.306;6.934;2024-01-30T08:59:22;7.23;;;4.40;;
22963;SDS011;11648;49.306;6.934;2024-01-30T09:01:48;7.43;;;5.10;;
22963;SDS011;11648;49.306;6.934;2024-01-30T09:04:29;9.60;;;5.03;;
22963;SDS011;11648;49.306;6.934;2024-01-30T09:06:56;9.33;;;4.77;;
22963;SDS011;11648;49.306;6.934;2024-01-30T09:09:23;7.90;;;4.80;;
22963;SDS011;11648;49.306;6.934;2024-01-30T09:11:50;8.47;;;4.90;;
22963;SDS011;11648;49.306;6.934;2024-01-30T09:14:17;7.70;;;4.77;;
22963;SDS011;11648;49.306;6.934;2024-01-30T09:16:44;7.93;;;4.30;;
22963;SDS011;11648;49.306;6.934;2024-01-30T09:19:11;9.20;;;4.77;;
22963;SDS011;11648;49.306;6.934;2024-01-30T09:21:38;8.67;;;4.87;;
22963;SDS011;11648;49.306;6.934;2024-01-30T09:24:05;8.13;;;4.97;;
22963;SDS011;11648;49.306;6.934;2024-01-30T09:26:32;6.97;;;5.03;;
22963;SDS011;11648;49.306;6.934;2024-01-30T09:28:59;8.90;;;5.10;;
22963;SDS011;11648;49.306;6.934;2024-01-30T09:31:26;6.17;;;4.77;;
22963;SDS011;11648;49.306;6.934;2024-01-30T09:33:53;7.90;;;4.50;;
22963;SDS011;11648;49.306;6.934;2024-01-30T09:36:20;8.73;;;4.90;;
22963;SDS011;11648;49.306;6.934;2024-01-30T09:38:48;7.33;;;4.70;;
22963;SDS011;11648;49.306;6.934;2024-01-30T09:41:15;7.70;;;4.47;;
22963;SDS011;11648;49.306;6.934;2024-01-30T09:43:42;8.47;;;4.67;;
22963;SDS011;11648;49.306;6.934;2024-01-30T09:46:17;7.73;;;4.57;;
22963;SDS011;11648;49.306;6.934;2024-01-30T09:48:47;10.30;;;5.20;;
22963;SDS011;11648;49.306;6.934;2024-01-30T09:51:14;9.73;;;5.00;;
22963;SDS011;11648;49.306;6.934;2024-01-30T09:53:43;10.07;;;4.60;;
22963;SDS011;11648;49.306;6.934;2024-01-30T09:56:12;11.10;;;4.90;;
22963;SDS011;11648;49.306;6.934;2024-01-30T09:58:39;9.73;;;5.07;;
22963;SDS011;11648;49.306;6.934;2024-01-30T10:01:06;6.77;;;4.97;;
22963;SDS011;11648;49.306;6.934;2024-01-30T10:03:33;8.37;;;5.20;;
22963;SDS011;11648;49.306;6.934;2024-01-30T10:06:01;7.33;;;4.70;;
22963;SDS011;11648;49.306;6.934;2024-01-30T10:08:28;7.50;;;5.03;;
22963;SDS011;11648;49.306;6.934;2024-01-30T10:10:56;6.47;;;4.87;;
22963;SDS011;11648;49.306;6.934;2024-01-30T10:13:25;7.93;;;5.10;;
22963;SDS011;11648;49.306;6.934;2024-01-30T10:15:53;7.00;;;4.43;;
22963;SDS011;11648;49.306;6.934;2024-01-30T10:18:24;8.13;;;4.90;;
22963;SDS011;11648;49.306;6.934;2024-01-30T10:20:51;6.47;;;4.63;;
22963;SDS011;11648;49.306;6.934;2024-01-30T10:23:18;7.97;;;4.70;;
22963;SDS011;11648;49.306;6.934;2024-01-30T10:25:46;6.97;;;4.60;;
22963;SDS011;11648;49.306;6.934;2024-01-30T10:28:13;7.27;;;4.67;;
22963;SDS011;11648;49.306;6.934;2024-01-30T10:30:40;9.93;;;5.00;;
22963;SDS011;11648;49.306;6.934;2024-01-30T10:33:07;8.57;;;4.80;;
22963;SDS011;11648;49.306;6.934;2024-01-30T10:35:34;8.47;;;5.00;;
22963;SDS011;11648;49.306;6.934;2024-01-30T10:38:01;8.37;;;4.97;;
22963;SDS011;11648;49.306;6.934;2024-01-30T10:40:29;7.50;;;4.73;;
22963;SDS011;11648;49.306;6.934;2024-01-30T10:42:58;8.30;;;4.63;;
22963;SDS011;11648;49.306;6.934;2024-01-30T10:45:31;7.57;;;4.73;;
22963;SDS011;11648;49.306;6.934;2024-01-30T10:47:59;8.53;;;4.77;;
22963;SDS011;11648;49.306;6.934;2024-01-30T10:50:29;7.10;;;4.63;;
22963;SDS011;11648;49.306;6.934;2024-01-30T10:52:57;9.27;;;4.50;;
22963;SDS011;11648;49.306;6.934;2024-01-30T10:55:25;5.73;;;4.40;;
22963;SDS011;11648;49.306;6.934;2024-01-30T10:57:55;6.70;;;4.60;;
22963;SDS011;11648;49.306;6.934;2024-01-30T11:00:22;6.37;;;4.30;;
22963;SDS011;11648;49.306;6.934;2024-01-30T11:02:50;5.97;;;4.27;;
22963;SDS011;11648;49.306;6.934;2024-01-30T11:05:25;7.03;;;4.67;;
22963;SDS011;11648;49.306;6.934;2024-01-30T11:08:09;6.87;;;4.97;;
22963;SDS011;11648;49.306;6.934;2024-01-30T11:10:46;6.27;;;4.37;;
22963;SDS011;11648;49.306;6.934;2024-01-30T11:13:14;6.97;;;4.67;;
22963;SDS011;11648;49.306;6.934;2024-01-30T11:15:41;7.33;;;5.00;;
22963;SDS011;11648;49.306;6.934;2024-01-30T11:18:08;8.03;;;4.50;;
22963;SDS011;11648;49.306;6.934;2024-01-30T11:20:35;7.37;;;5.13;;
22963;SDS011;11648;49.306;6.934;2024-01-30T11:23:02;8.00;;;4.77;;
22963;SDS011;11648;49.306;6.934;2024-01-30T11:25:33;7.80;;;4.60;;
22963;SDS011;11648;49.306;6.934;2024-01-30T11:28:00;6.73;;;4.90;;
22963;SDS011;11648;49.306;6.934;2024-01-30T11:30:28;7.97;;;4.67;;
22963;SDS011;11648;49.306;6.934;2024-01-30T11:33:43;8.57;;;4.97;;
22963;SDS011;11648;49.306;6.934;2024-01-30T11:36:00;8.20;;;5.40;;
22963;SDS011;11648;49.306;6.934;2024-01-30T11:38:29;7.40;;;5.03;;
22963;SDS011;11648;49.306;6.934;2024-01-30T11:40:56;8.00;;;5.00;;
22963;SDS011;11648;49.306;6.934;2024-01-30T11:43:23;6.27;;;4.60;;
22963;SDS011;11648;49.306;6.934;2024-01-30T11:45:51;6.50;;;4.37;;
22963;SDS011;11648;49.306;6.934;2024-01-30T11:48:18;9.97;;;4.60;;
22963;SDS011;11648;49.306;6.934;2024-01-30T11:50:46;10.03;;;5.30;;
22963;SDS011;11648;49.306;6.934;2024-01-30T11:53:13;7.90;;;5.27;;
22963;SDS011;11648;49.306;6.934;2024-01-30T11:55:40;8.37;;;5.30;;
22963;SDS011;11648;49.306;6.934;2024-01-30T11:58:07;8.17;;;5.17;;
22963;SDS011;11648;49.306;6.934;2024-01-30T12:00:35;8.00;;;4.97;;
22963;SDS011;11648;49.306;6.934;2024-01-30T12:03:02;9.20;;;4.93;;
22963;SDS011;11648;49.306;6.934;2024-01-30T12:05:31;8.10;;;4.97;;
22963;SDS011;11648;49.306;6.934;2024-01-30T12:07:58;8.13;;;5.20;;
22963;SDS011;11648;49.306;6.934;2024-01-30T12:10:27;8.27;;;5.10;;
22963;SDS011;11648;49.306;6.934;2024-01-30T12:12:54;11.13;;;5.40;;
22963;SDS011;11648;49.306;6.934;2024-01-30T12:15:22;10.20;;;5.40;;
22963;SDS011;11648;49.306;6.934;2024-01-30T12:17:49;10.97;;;5.03;;
22963;SDS011;11648;49.306;6.934;2024-01-30T12:20:19;8.97;;;4.60;;
22963;SDS011;11648;49.306;6.934;2024-01-30T12:22:49;9.27;;;5.03;;
22963;SDS011;11648;49.306;6.934;2024-01-30T12:25:17;9.20;;;4.77;;
22963;SDS011;11648;49.306;6.934;2024-01-30T12:27:47;7.93;;;5.07;;
22963;SDS011;11648;49.306;6.934;2024-01-30T12:30:19;8.20;;;4.80;;
22963;SDS011;11648;49.306;6.934;2024-01-30T12:32:51;10.13;;;5.03;;
22963;SDS011;11648;49.306;6.934;2024-01-30T12:35:19;9.40;;;5.03;;
22963;SDS011;11648;49.306;6.934;2024-01-30T12:37:48;8.63;;;5.07;;
22963;SDS011;11648;49.306;6.934;2024-01-30T12:40:15;6.53;;;4.70;;
22963;SDS011;11648;49.306;6.934;2024-01-30T12:42:45;6.13;;;4.43;;
22963;SDS011;11648;49.306;6.934;2024-01-30T12:45:16;7.07;;;4.43;;
22963;SDS011;11648;49.306;6.934;2024-01-30T12:47:47;6.90;;;4.70;;
22963;SDS011;11648;49.306;6.934;2024-01-30T12:50:15;10.53;;;4.90;;
22963;SDS011;11648;49.306;6.934;2024-01-30T12:52:45;8.47;;;4.93;;
22963;SDS011;11648;49.306;6.934;2024-01-30T12:55:16;7.90;;;4.80;;
22963;SDS011;11648;49.306;6.934;2024-01-30T12:57:43;8.53;;;5.10;;
22963;SDS011;11648;49.306;6.934;2024-01-30T13:00:10;7.57;;;4.87;;
22963;SDS011;11648;49.306;6.934;2024-01-30T13:02:37;9.90;;;5.77;;
22963;SDS011;11648;49.306;6.934;2024-01-30T13:05:05;9.17;;;5.63;;
22963;SDS011;11648;49.306;6.934;2024-01-30T13:07:32;9.57;;;5.73;;
22963;SDS011;11648;49.306;6.934;2024-01-30T13:09:59;10.03;;;5.70;;
22963;SDS011;11648;49.306;6.934;2024-01-30T13:12:30;9.30;;;5.70;;
22963;SDS011;11648;49.306;6.934;2024-01-30T13:14:59;11.03;;;6.77;;
22963;SDS011;11648;49.306;6.934;2024-01-30T13:17:31;8.20;;;5.97;;
22963;SDS011;11648;49.306;6.934;2024-01-30T13:19:58;10.60;;;5.30;;
22963;SDS011;11648;49.306;6.934;2024-01-30T13:22:36;9.80;;;4.93;;
22963;SDS011;11648;49.306;6.934;2024-01-30T13:25:05;10.03;;;5.10;;
22963;SDS011;11648;49.306;6.934;2024-01-30T13:27:33;9.20;;;5.50;;
22963;SDS011;11648;49.306;6.934;2024-01-30T13:30:01;9.77;;;5.60;;
22963;SDS011;11648;49.306;6.934;2024-01-30T13:32:27;9.83;;;5.40;;
22963;SDS011;11648;49.306;6.934;2024-01-30T13:34:54;10.00;;;5.40;;
22963;SDS011;11648;49.306;6.934;2024-01-30T13:37:22;8.73;;;4.93;;
22963;SDS011;11648;49.306;6.934;2024-01-30T13:39:49;9.17;;;5.43;;
22963;SDS011;11648;49.306;6.934;2024-01-30T13:42:17;9.63;;;5.50;;
22963;SDS011;11648;49.306;6.934;2024-01-30T13:44:44;9.60;;;5.70;;
22963;SDS011;11648;49.306;6.934;2024-01-30T13:47:11;9.97;;;5.63;;
22963;SDS011;11648;49.306;6.934;2024-01-30T13:49:38;8.23;;;5.03;;
22963;SDS011;11648;49.306;6.934;2024-01-30T13:52:05;9.63;;;5.57;;
22963;SDS011;11648;49.306;6.934;2024-01-30T13:54:32;8.07;;;5.33;;
22963;SDS011;11648;49.306;6.934;2024-01-30T13:56:59;8.90;;;5.43;;
22963;SDS011;11648;49.306;6.934;2024-01-30T13:59:26;12.83;;;6.17;;
22963;SDS011;11648;49.306;6.934;2024-01-30T14:01:53;9.53;;;5.43;;
22963;SDS011;11648;49.306;6.934;2024-01-30T14:04:20;7.70;;;5.47;;
22963;SDS011;11648;49.306;6.934;2024-01-30T14:06:47;9.47;;;5.30;;
22963;SDS011;11648;49.306;6.934;2024-01-30T14:09:26;9.00;;;5.40;;
22963;SDS011;11648;49.306;6.934;2024-01-30T14:11:53;9.60;;;4.87;;
22963;SDS011;11648;49.306;6.934;2024-01-30T14:14:20;8.70;;;5.00;;
22963;SDS011;11648;49.306;6.934;2024-01-30T14:16:47;7.43;;;5.07;;
22963;SDS011;11648;49.306;6.934;2024-01-30T14:19:14;8.93;;;5.27;;
22963;SDS011;11648;49.306;6.934;2024-01-30T14:21:41;9.50;;;5.50;;
22963;SDS011;11648;49.306;6.934;2024-01-30T14:24:10;10.33;;;5.40;;
22963;SDS011;11648;49.306;6.934;2024-01-30T14:26:37;6.80;;;4.77;;
22963;SDS011;11648;49.306;6.934;2024-01-30T14:29:03;8.93;;;4.80;;
22963;SDS011;11648;49.306;6.934;2024-01-30T14:31:30;7.53;;;5.07;;
22963;SDS011;11648;49.306;6.934;2024-01-30T14:33:57;11.73;;;5.70;;
22963;SDS011;11648;49.306;6.934;2024-01-30T14:36:25;12.53;;;5.30;;
22963;SDS011;11648;49.306;6.934;2024-01-30T14:38:55;8.50;;;5.80;;
22963;SDS011;11648;49.306;6.934;2024-01-30T14:41:22;9.53;;;5.20;;
22963;SDS011;11648;49.306;6.934;2024-01-30T14:43:49;9.77;;;5.27;;
22963;SDS011;11648;49.306;6.934;2024-01-30T14:46:16;10.27;;;4.83;;
22963;SDS011;11648;49.306;6.934;2024-01-30T14:48:43;11.77;;;5.47;;